sensor_id;sensor_type;location;lat;lon;timestamp;P1;durP1;ratioP1;P2;durP2;ratioP2
57828;SDS011;43657;52.698;6.314;2022-08-19T00:35:15;7.25;;;6.55;;
57828;SDS011;43657;52.698;6.314;2022-08-19T00:37:41;7.50;;;6.80;;
57828;SDS011;43657;52.698;6.314;2022-08-19T00:40:08;7.30;;;6.60;;
57828;SDS011;43657;52.698;6.314;2022-08-19T00:42:36;8.75;;;7.82;;
57828;SDS011;43657;52.698;6.314;2022-08-19T00:45:02;7.43;;;6.68;;
57828;SDS011;43657;52.698;6.314;2022-08-19T00:47:37;7.15;;;6.45;;
57828;SDS011;43657;52.698;6.314;2022-08-19T00:50:02;8.38;;;7.55;;
57828;SDS011;43657;52.698;6.314;2022-08-19T00:52:30;8.23;;;7.22;;
57828;SDS011;43657;52.698;6.314;2022-08-19T00:54:58;8.40;;;7.60;;
57828;SDS011;43657;52.698;6.314;2022-08-19T00:57:30;8.25;;;7.45;;
57828;SDS011;43657;52.698;6.314;2022-08-19T00:59:59;6.80;;;6.20;;
57828;SDS011;43657;52.698;6.314;2022-08-19T01:02:28;6.20;;;5.60;;
57828;SDS011;43657;52.698;6.314;2022-08-19T01:04:54;7.28;;;6.57;;
57828;SDS011;43657;52.698;6.314;2022-08-19T01:07:20;7.38;;;6.68;;
57828;SDS011;43657;52.698;6.314;2022-08-19T01:09:46;7.32;;;6.63;;
57828;SDS011;43657;52.698;6.314;2022-08-19T01:12:12;7.93;;;7.15;;
57828;SDS011;43657;52.698;6.314;2022-08-19T01:18:13;7.35;;;6.65;;
57828;SDS011;43657;52.698;6.314;2022-08-19T01:20:41;8.02;;;7.18;;
57828;SDS011;43657;52.698;6.314;2022-08-19T01:23:08;8.52;;;7.47;;
57828;SDS011;43657;52.698;6.314;2022-08-19T01:25:44;7.97;;;7.18;;
57828;SDS011;43657;52.698;6.314;2022-08-19T01:28:21;8.80;;;7.90;;
57828;SDS011;43657;52.698;6.314;2022-08-19T01:30:48;8.98;;;7.85;;
57828;SDS011;43657;52.698;6.314;2022-08-19T01:33:14;8.35;;;7.55;;
57828;SDS011;43657;52.698;6.314;2022-08-19T01:35:40;8.07;;;7.07;;
57828;SDS011;43657;52.698;6.314;2022-08-19T01:38:08;7.15;;;6.45;;
57828;SDS011;43657;52.698;6.314;2022-08-19T01:40:36;7.55;;;6.85;;
57828;SDS011;43657;52.698;6.314;2022-08-19T01:43:04;7.68;;;6.88;;
57828;SDS011;43657;52.698;6.314;2022-08-19T01:45:31;8.20;;;7.40;;
57828;SDS011;43657;52.698;6.314;2022-08-19T01:47:58;7.22;;;6.53;;
57828;SDS011;43657;52.698;6.314;2022-08-19T01:50:25;6.78;;;6.10;;
57828;SDS011;43657;52.698;6.314;2022-08-19T01:52:52;6.28;;;5.68;;
57828;SDS011;43657;52.698;6.314;2022-08-19T01:55:19;6.65;;;5.95;;
57828;SDS011;43657;52.698;6.314;2022-08-19T01:57:48;5.40;;;4.90;;
57828;SDS011;43657;52.698;6.314;2022-08-19T02:00:22;5.25;;;4.75;;
57828;SDS011;43657;52.698;6.314;2022-08-19T02:02:49;5.80;;;5.20;;
57828;SDS011;43657;52.698;6.314;2022-08-19T02:05:15;6.10;;;5.47;;
57828;SDS011;43657;52.698;6.314;2022-08-19T02:07:42;5.18;;;4.68;;
57828;SDS011;43657;52.698;6.314;2022-08-19T02:10:11;5.10;;;4.60;;
57828;SDS011;43657;52.698;6.314;2022-08-19T02:12:42;5.35;;;4.85;;
57828;SDS011;43657;52.698;6.314;2022-08-19T02:15:08;5.35;;;4.82;;
57828;SDS011;43657;52.698;6.314;2022-08-19T02:17:34;5.10;;;4.40;;
57828;SDS011;43657;52.698;6.314;2022-08-19T02:20:00;6.15;;;5.55;;
57828;SDS011;43657;52.698;6.314;2022-08-19T02:22:26;6.40;;;5.80;;
57828;SDS011;43657;52.698;6.314;2022-08-19T02:24:52;7.38;;;6.45;;
57828;SDS011;43657;52.698;6.314;2022-08-19T02:27:18;8.68;;;7.15;;
57828;SDS011;43657;52.698;6.314;2022-08-19T02:29:45;7.32;;;6.63;;
57828;SDS011;43657;52.698;6.314;2022-08-19T02:32:12;7.25;;;6.55;;
57828;SDS011;43657;52.698;6.314;2022-08-19T02:34:38;8.00;;;6.82;;
57828;SDS011;43657;52.698;6.314;2022-08-19T02:37:04;6.50;;;5.90;;
57828;SDS011;43657;52.698;6.314;2022-08-19T02:39:30;7.38;;;6.68;;
57828;SDS011;43657;52.698;6.314;2022-08-19T02:41:55;7.68;;;6.35;;
57828;SDS011;43657;52.698;6.314;2022-08-19T02:44:21;7.07;;;6.38;;
57828;SDS011;43657;52.698;6.314;2022-08-19T02:46:47;7.07;;;6.13;;
57828;SDS011;43657;52.698;6.314;2022-08-19T02:49:15;7.45;;;6.75;;
57828;SDS011;43657;52.698;6.314;2022-08-19T02:51:42;8.57;;;7.55;;
57828;SDS011;43657;52.698;6.314;2022-08-19T02:54:10;8.23;;;7.35;;
57828;SDS011;43657;52.698;6.314;2022-08-19T02:56:37;7.78;;;6.97;;
57828;SDS011;43657;52.698;6.314;2022-08-19T02:59:05;8.63;;;7.00;;
57828;SDS011;43657;52.698;6.314;2022-08-19T03:01:33;6.50;;;5.90;;
57828;SDS011;43657;52.698;6.314;2022-08-19T03:04:00;6.15;;;5.55;;
57828;SDS011;43657;52.698;6.314;2022-08-19T03:06:27;6.85;;;5.85;;
57828;SDS011;43657;52.698;6.314;2022-08-19T03:08:53;6.97;;;5.30;;
57828;SDS011;43657;52.698;6.314;2022-08-19T03:11:24;6.50;;;5.78;;
57828;SDS011;43657;52.698;6.314;2022-08-19T03:13:52;6.70;;;5.90;;
57828;SDS011;43657;52.698;6.314;2022-08-19T03:16:20;6.13;;;5.50;;
57828;SDS011;43657;52.698;6.314;2022-08-19T03:18:47;6.15;;;5.55;;
57828;SDS011;43657;52.698;6.314;2022-08-19T03:21:16;5.85;;;5.00;;
57828;SDS011;43657;52.698;6.314;2022-08-19T03:23:47;6.70;;;6.00;;
57828;SDS011;43657;52.698;6.314;2022-08-19T03:26:13;7.13;;;6.43;;
57828;SDS011;43657;52.698;6.314;2022-08-19T03:28:42;7.40;;;6.70;;
57828;SDS011;43657;52.698;6.314;2022-08-19T03:31:13;7.05;;;6.28;;
57828;SDS011;43657;52.698;6.314;2022-08-19T03:33:39;8.25;;;6.60;;
57828;SDS011;43657;52.698;6.314;2022-08-19T03:36:17;7.93;;;7.03;;
57828;SDS011;43657;52.698;6.314;2022-08-19T03:38:46;8.23;;;6.80;;
57828;SDS011;43657;52.698;6.314;2022-08-19T03:41:15;7.63;;;6.75;;
57828;SDS011;43657;52.698;6.314;2022-08-19T03:43:43;7.68;;;6.88;;
57828;SDS011;43657;52.698;6.314;2022-08-19T03:46:13;7.07;;;6.40;;
57828;SDS011;43657;52.698;6.314;2022-08-19T03:48:41;6.95;;;6.20;;
57828;SDS011;43657;52.698;6.314;2022-08-19T03:51:15;7.30;;;6.22;;
57828;SDS011;43657;52.698;6.314;2022-08-19T03:53:44;7.03;;;6.30;;
57828;SDS011;43657;52.698;6.314;2022-08-19T03:56:09;5.80;;;5.20;;
57828;SDS011;43657;52.698;6.314;2022-08-19T03:58:35;6.85;;;6.15;;
57828;SDS011;43657;52.698;6.314;2022-08-19T04:01:02;7.80;;;7.00;;
57828;SDS011;43657;52.698;6.314;2022-08-19T04:03:31;7.45;;;6.68;;
57828;SDS011;43657;52.698;6.314;2022-08-19T04:05:57;6.93;;;6.00;;
57828;SDS011;43657;52.698;6.314;2022-08-19T04:08:23;8.48;;;6.00;;
57828;SDS011;43657;52.698;6.314;2022-08-19T04:10:48;7.07;;;6.15;;
57828;SDS011;43657;52.698;6.314;2022-08-19T04:13:15;8.20;;;7.38;;
57828;SDS011;43657;52.698;6.314;2022-08-19T04:15:43;9.15;;;7.47;;
57828;SDS011;43657;52.698;6.314;2022-08-19T04:18:10;9.27;;;7.57;;
57828;SDS011;43657;52.698;6.314;2022-08-19T04:20:40;10.15;;;7.60;;
57828;SDS011;43657;52.698;6.314;2022-08-19T04:23:10;9.93;;;8.10;;
57828;SDS011;43657;52.698;6.314;2022-08-19T04:25:38;9.80;;;8.10;;
57828;SDS011;43657;52.698;6.314;2022-08-19T04:28:06;12.75;;;9.80;;
57828;SDS011;43657;52.698;6.314;2022-08-19T04:30:41;11.23;;;9.95;;
57828;SDS011;43657;52.698;6.314;2022-08-19T04:33:12;12.40;;;10.32;;
57828;SDS011;43657;52.698;6.314;2022-08-19T04:35:41;11.55;;;9.80;;
57828;SDS011;43657;52.698;6.314;2022-08-19T04:38:09;12.27;;;9.77;;
57828;SDS011;43657;52.698;6.314;2022-08-19T04:40:43;12.35;;;11.00;;
57828;SDS011;43657;52.698;6.314;2022-08-19T04:43:29;10.43;;;9.27;;
57828;SDS011;43657;52.698;6.314;2022-08-19T04:45:55;11.43;;;9.85;;
57828;SDS011;43657;52.698;6.314;2022-08-19T04:48:21;11.23;;;9.48;;
57828;SDS011;43657;52.698;6.314;2022-08-19T04:50:56;10.20;;;8.77;;
57828;SDS011;43657;52.698;6.314;2022-08-19T04:53:26;12.05;;;9.80;;
57828;SDS011;43657;52.698;6.314;2022-08-19T04:55:55;11.32;;;9.65;;
57828;SDS011;43657;52.698;6.314;2022-08-19T04:58:21;10.43;;;9.38;;
57828;SDS011;43657;52.698;6.314;2022-08-19T05:00:48;10.40;;;9.15;;
57828;SDS011;43657;52.698;6.314;2022-08-19T05:03:13;11.13;;;9.95;;
57828;SDS011;43657;52.698;6.314;2022-08-19T05:05:42;11.27;;;10.07;;
57828;SDS011;43657;52.698;6.314;2022-08-19T05:08:14;9.05;;;7.93;;
57828;SDS011;43657;52.698;6.314;2022-08-19T05:10:48;9.45;;;7.85;;
57828;SDS011;43657;52.698;6.314;2022-08-19T05:13:16;8.30;;;7.15;;
57828;SDS011;43657;52.698;6.314;2022-08-19T05:15:44;8.68;;;7.78;;
57828;SDS011;43657;52.698;6.314;2022-08-19T05:18:18;8.73;;;7.10;;
57828;SDS011;43657;52.698;6.314;2022-08-19T05:21:05;10.02;;;7.55;;
57828;SDS011;43657;52.698;6.314;2022-08-19T05:23:53;7.40;;;6.40;;
57828;SDS011;43657;52.698;6.314;2022-08-19T05:26:18;6.72;;;5.82;;
57828;SDS011;43657;52.698;6.314;2022-08-19T05:28:44;7.32;;;6.55;;
57828;SDS011;43657;52.698;6.314;2022-08-19T05:31:09;7.80;;;7.00;;
57828;SDS011;43657;52.698;6.314;2022-08-19T05:33:35;8.02;;;7.15;;
57828;SDS011;43657;52.698;6.314;2022-08-19T05:36:01;12.13;;;9.02;;
57828;SDS011;43657;52.698;6.314;2022-08-19T05:38:27;10.77;;;8.82;;
57828;SDS011;43657;52.698;6.314;2022-08-19T05:40:53;12.05;;;10.20;;
57828;SDS011;43657;52.698;6.314;2022-08-19T05:43:19;14.98;;;12.70;;
57828;SDS011;43657;52.698;6.314;2022-08-19T05:45:44;14.63;;;11.63;;
57828;SDS011;43657;52.698;6.314;2022-08-19T05:48:11;13.77;;;11.90;;
57828;SDS011;43657;52.698;6.314;2022-08-19T05:50:38;16.35;;;12.70;;
57828;SDS011;43657;52.698;6.314;2022-08-19T05:53:05;17.00;;;13.43;;
57828;SDS011;43657;52.698;6.314;2022-08-19T05:55:31;16.80;;;13.48;;
57828;SDS011;43657;52.698;6.314;2022-08-19T05:57:57;19.17;;;14.40;;
57828;SDS011;43657;52.698;6.314;2022-08-19T06:00:22;18.23;;;12.82;;
57828;SDS011;43657;52.698;6.314;2022-08-19T06:02:48;18.25;;;13.55;;
57828;SDS011;43657;52.698;6.314;2022-08-19T06:05:14;20.48;;;13.70;;
57828;SDS011;43657;52.698;6.314;2022-08-19T06:07:40;18.95;;;14.45;;
57828;SDS011;43657;52.698;6.314;2022-08-19T06:10:06;19.65;;;14.05;;
57828;SDS011;43657;52.698;6.314;2022-08-19T06:12:34;18.08;;;13.65;;
57828;SDS011;43657;52.698;6.314;2022-08-19T06:15:01;19.48;;;15.00;;
57828;SDS011;43657;52.698;6.314;2022-08-19T06:17:30;19.65;;;14.68;;
57828;SDS011;43657;52.698;6.314;2022-08-19T06:19:56;20.77;;;14.80;;
57828;SDS011;43657;52.698;6.314;2022-08-19T06:22:21;21.05;;;15.50;;
57828;SDS011;43657;52.698;6.314;2022-08-19T06:24:48;22.13;;;16.27;;
57828;SDS011;43657;52.698;6.314;2022-08-19T06:27:17;24.48;;;16.88;;
57828;SDS011;43657;52.698;6.314;2022-08-19T06:29:43;23.63;;;16.05;;
57828;SDS011;43657;52.698;6.314;2022-08-19T06:32:09;22.23;;;15.85;;
57828;SDS011;43657;52.698;6.314;2022-08-19T06:34:36;23.33;;;16.23;;
57828;SDS011;43657;52.698;6.314;2022-08-19T06:37:02;23.85;;;15.85;;
57828;SDS011;43657;52.698;6.314;2022-08-19T06:39:32;22.38;;;16.30;;
57828;SDS011;43657;52.698;6.314;2022-08-19T06:42:00;27.20;;;18.17;;
57828;SDS011;43657;52.698;6.314;2022-08-19T06:44:28;29.00;;;18.50;;
57828;SDS011;43657;52.698;6.314;2022-08-19T06:47:00;28.50;;;18.55;;
57828;SDS011;43657;52.698;6.314;2022-08-19T06:49:28;26.83;;;18.80;;
57828;SDS011;43657;52.698;6.314;2022-08-19T06:51:56;25.35;;;18.10;;
57828;SDS011;43657;52.698;6.314;2022-08-19T06:54:23;27.58;;;19.02;;
57828;SDS011;43657;52.698;6.314;2022-08-19T06:56:50;27.58;;;18.25;;
57828;SDS011;43657;52.698;6.314;2022-08-19T06:59:21;24.13;;;17.45;;
57828;SDS011;43657;52.698;6.314;2022-08-19T07:01:52;21.70;;;16.15;;
57828;SDS011;43657;52.698;6.314;2022-08-19T07:04:21;24.08;;;18.27;;
57828;SDS011;43657;52.698;6.314;2022-08-19T07:06:48;23.25;;;16.88;;
57828;SDS011;43657;52.698;6.314;2022-08-19T07:09:16;24.50;;;18.15;;
57828;SDS011;43657;52.698;6.314;2022-08-19T07:11:47;22.95;;;17.33;;
57828;SDS011;43657;52.698;6.314;2022-08-19T07:14:15;20.75;;;16.35;;
57828;SDS011;43657;52.698;6.314;2022-08-19T07:16:42;20.42;;;16.95;;
57828;SDS011;43657;52.698;6.314;2022-08-19T07:19:11;19.58;;;15.98;;
57828;SDS011;43657;52.698;6.314;2022-08-19T07:21:37;19.02;;;16.40;;
57828;SDS011;43657;52.698;6.314;2022-08-19T07:24:03;18.67;;;16.13;;
57828;SDS011;43657;52.698;6.314;2022-08-19T07:26:30;19.90;;;16.80;;
57828;SDS011;43657;52.698;6.314;2022-08-19T07:28:58;18.23;;;16.15;;
57828;SDS011;43657;52.698;6.314;2022-08-19T07:31:26;17.35;;;15.25;;
57828;SDS011;43657;52.698;6.314;2022-08-19T07:33:52;17.92;;;15.85;;
57828;SDS011;43657;52.698;6.314;2022-08-19T07:36:25;17.38;;;15.57;;
57828;SDS011;43657;52.698;6.314;2022-08-19T07:38:57;17.75;;;15.52;;
57828;SDS011;43657;52.698;6.314;2022-08-19T07:41:25;17.92;;;15.93;;
57828;SDS011;43657;52.698;6.314;2022-08-19T07:43:53;17.65;;;15.32;;
57828;SDS011;43657;52.698;6.314;2022-08-19T07:46:20;16.55;;;14.50;;
57828;SDS011;43657;52.698;6.314;2022-08-19T07:48:46;16.23;;;14.52;;
57828;SDS011;43657;52.698;6.314;2022-08-19T07:51:15;16.15;;;14.45;;
57828;SDS011;43657;52.698;6.314;2022-08-19T07:53:43;16.15;;;14.18;;
57828;SDS011;43657;52.698;6.314;2022-08-19T07:56:11;16.25;;;14.00;;
57828;SDS011;43657;52.698;6.314;2022-08-19T07:58:40;17.13;;;14.75;;
57828;SDS011;43657;52.698;6.314;2022-08-19T08:01:08;14.98;;;13.48;;
57828;SDS011;43657;52.698;6.314;2022-08-19T08:03:36;16.33;;;14.63;;
57828;SDS011;43657;52.698;6.314;2022-08-19T08:06:21;17.13;;;14.43;;
57828;SDS011;43657;52.698;6.314;2022-08-19T08:09:06;15.38;;;13.77;;
57828;SDS011;43657;52.698;6.314;2022-08-19T08:11:48;16.65;;;14.85;;
57828;SDS011;43657;52.698;6.314;2022-08-19T08:14:21;16.43;;;14.83;;
57828;SDS011;43657;52.698;6.314;2022-08-19T08:16:50;16.40;;;14.70;;
57828;SDS011;43657;52.698;6.314;2022-08-19T08:19:17;15.30;;;13.70;;
57828;SDS011;43657;52.698;6.314;2022-08-19T08:21:44;14.90;;;13.32;;
57828;SDS011;43657;52.698;6.314;2022-08-19T08:24:10;15.38;;;13.88;;
57828;SDS011;43657;52.698;6.314;2022-08-19T08:26:36;15.13;;;13.63;;
57828;SDS011;43657;52.698;6.314;2022-08-19T08:29:02;15.05;;;13.55;;
57828;SDS011;43657;52.698;6.314;2022-08-19T08:31:28;14.13;;;12.73;;
57828;SDS011;43657;52.698;6.314;2022-08-19T08:33:53;15.18;;;13.57;;
57828;SDS011;43657;52.698;6.314;2022-08-19T08:36:19;14.57;;;13.18;;
57828;SDS011;43657;52.698;6.314;2022-08-19T08:38:46;13.20;;;11.90;;
57828;SDS011;43657;52.698;6.314;2022-08-19T08:41:17;13.80;;;12.40;;
57828;SDS011;43657;52.698;6.314;2022-08-19T08:43:58;12.30;;;11.10;;
57828;SDS011;43657;52.698;6.314;2022-08-19T08:46:35;11.57;;;10.38;;
57828;SDS011;43657;52.698;6.314;2022-08-19T08:51:51;11.45;;;10.32;;
57828;SDS011;43657;52.698;6.314;2022-08-19T08:54:34;10.77;;;9.70;;
57828;SDS011;43657;52.698;6.314;2022-08-19T08:57:06;11.07;;;9.98;;
57828;SDS011;43657;52.698;6.314;2022-08-19T08:59:36;10.17;;;9.17;;
57828;SDS011;43657;52.698;6.314;2022-08-19T09:02:04;11.07;;;9.98;;
57828;SDS011;43657;52.698;6.314;2022-08-19T09:04:30;9.70;;;8.70;;
57828;SDS011;43657;52.698;6.314;2022-08-19T09:07:04;10.00;;;9.00;;
57828;SDS011;43657;52.698;6.314;2022-08-19T09:09:48;8.73;;;7.82;;
57828;SDS011;43657;52.698;6.314;2022-08-19T09:15:25;9.07;;;8.18;;
57828;SDS011;43657;52.698;6.314;2022-08-19T09:18:03;9.75;;;8.85;;
57828;SDS011;43657;52.698;6.314;2022-08-19T09:20:31;9.55;;;8.65;;
57828;SDS011;43657;52.698;6.314;2022-08-19T09:22:57;9.27;;;8.48;;
57828;SDS011;43657;52.698;6.314;2022-08-19T09:25:24;8.38;;;7.57;;
57828;SDS011;43657;52.698;6.314;2022-08-19T09:27:50;7.90;;;7.10;;
57828;SDS011;43657;52.698;6.314;2022-08-19T09:30:25;8.07;;;7.28;;
57828;SDS011;43657;52.698;6.314;2022-08-19T09:32:52;8.00;;;7.20;;
57828;SDS011;43657;52.698;6.314;2022-08-19T09:35:21;7.15;;;6.38;;
57828;SDS011;43657;52.698;6.314;2022-08-19T09:37:48;9.45;;;8.25;;
57828;SDS011;43657;52.698;6.314;2022-08-19T09:40:14;9.30;;;8.40;;
57828;SDS011;43657;52.698;6.314;2022-08-19T09:42:40;9.45;;;8.55;;
57828;SDS011;43657;52.698;6.314;2022-08-19T09:45:08;8.65;;;7.75;;
57828;SDS011;43657;52.698;6.314;2022-08-19T09:47:35;8.20;;;7.50;;
57828;SDS011;43657;52.698;6.314;2022-08-19T09:50:03;7.90;;;7.20;;
57828;SDS011;43657;52.698;6.314;2022-08-19T09:52:30;7.90;;;7.20;;
57828;SDS011;43657;52.698;6.314;2022-08-19T09:54:56;8.60;;;7.70;;
57828;SDS011;43657;52.698;6.314;2022-08-19T09:57:22;7.53;;;6.82;;
57828;SDS011;43657;52.698;6.314;2022-08-19T09:59:47;7.57;;;6.88;;
57828;SDS011;43657;52.698;6.314;2022-08-19T10:02:13;7.55;;;6.85;;
57828;SDS011;43657;52.698;6.314;2022-08-19T10:04:39;8.52;;;7.72;;
57828;SDS011;43657;52.698;6.314;2022-08-19T10:07:23;7.97;;;7.18;;
57828;SDS011;43657;52.698;6.314;2022-08-19T10:09:49;7.60;;;6.90;;
57828;SDS011;43657;52.698;6.314;2022-08-19T10:12:15;6.55;;;5.95;;
57828;SDS011;43657;52.698;6.314;2022-08-19T10:14:41;7.90;;;7.10;;
57828;SDS011;43657;52.698;6.314;2022-08-19T10:17:08;7.85;;;7.05;;
57828;SDS011;43657;52.698;6.314;2022-08-19T10:19:33;7.78;;;6.97;;
57828;SDS011;43657;52.698;6.314;2022-08-19T10:22:07;8.65;;;7.85;;
57828;SDS011;43657;52.698;6.314;2022-08-19T10:24:33;8.95;;;8.05;;
57828;SDS011;43657;52.698;6.314;2022-08-19T10:26:59;8.18;;;7.47;;
57828;SDS011;43657;52.698;6.314;2022-08-19T10:29:28;8.77;;;7.97;;
57828;SDS011;43657;52.698;6.314;2022-08-19T10:31:56;9.10;;;8.30;;
57828;SDS011;43657;52.698;6.314;2022-08-19T10:34:25;9.65;;;8.75;;
57828;SDS011;43657;52.698;6.314;2022-08-19T10:36:51;9.93;;;9.02;;
57828;SDS011;43657;52.698;6.314;2022-08-19T10:39:17;11.15;;;10.05;;
57828;SDS011;43657;52.698;6.314;2022-08-19T10:41:43;10.30;;;9.45;;
57828;SDS011;43657;52.698;6.314;2022-08-19T10:44:09;10.25;;;9.23;;
57828;SDS011;43657;52.698;6.314;2022-08-19T10:46:40;10.02;;;9.02;;
57828;SDS011;43657;52.698;6.314;2022-08-19T10:49:08;9.65;;;8.80;;
57828;SDS011;43657;52.698;6.314;2022-08-19T10:51:34;9.32;;;8.48;;
57828;SDS011;43657;52.698;6.314;2022-08-19T10:54:19;8.48;;;7.68;;
57828;SDS011;43657;52.698;6.314;2022-08-19T10:56:45;8.90;;;8.10;;
57828;SDS011;43657;52.698;6.314;2022-08-19T10:59:17;10.38;;;9.48;;
57828;SDS011;43657;52.698;6.314;2022-08-19T11:01:46;9.85;;;8.95;;
57828;SDS011;43657;52.698;6.314;2022-08-19T11:04:13;9.63;;;8.73;;
57828;SDS011;43657;52.698;6.314;2022-08-19T11:06:42;10.52;;;9.63;;
57828;SDS011;43657;52.698;6.314;2022-08-19T11:09:22;10.65;;;9.55;;
57828;SDS011;43657;52.698;6.314;2022-08-19T11:11:50;12.18;;;11.07;;
57828;SDS011;43657;52.698;6.314;2022-08-19T11:14:17;10.50;;;9.43;;
57828;SDS011;43657;52.698;6.314;2022-08-19T11:16:45;10.43;;;9.52;;
57828;SDS011;43657;52.698;6.314;2022-08-19T11:19:11;10.15;;;9.23;;
57828;SDS011;43657;52.698;6.314;2022-08-19T11:21:40;11.35;;;10.35;;
57828;SDS011;43657;52.698;6.314;2022-08-19T11:24:08;11.93;;;10.75;;
57828;SDS011;43657;52.698;6.314;2022-08-19T11:26:38;11.77;;;10.68;;
57828;SDS011;43657;52.698;6.314;2022-08-19T11:29:04;12.88;;;11.68;;
57828;SDS011;43657;52.698;6.314;2022-08-19T11:31:36;12.18;;;11.07;;
57828;SDS011;43657;52.698;6.314;2022-08-19T11:34:04;11.27;;;10.18;;
57828;SDS011;43657;52.698;6.314;2022-08-19T11:36:32;11.20;;;10.10;;
57828;SDS011;43657;52.698;6.314;2022-08-19T11:39:02;10.75;;;9.75;;
57828;SDS011;43657;52.698;6.314;2022-08-19T11:41:29;10.80;;;9.80;;
57828;SDS011;43657;52.698;6.314;2022-08-19T11:43:55;12.45;;;11.25;;
57828;SDS011;43657;52.698;6.314;2022-08-19T11:46:22;10.00;;;9.13;;
57828;SDS011;43657;52.698;6.314;2022-08-19T11:48:49;9.90;;;9.00;;
57828;SDS011;43657;52.698;6.314;2022-08-19T11:51:17;9.27;;;8.27;;
57828;SDS011;43657;52.698;6.314;2022-08-19T11:53:45;12.27;;;11.15;;
57828;SDS011;43657;52.698;6.314;2022-08-19T11:56:11;12.15;;;10.95;;
57828;SDS011;43657;52.698;6.314;2022-08-19T11:58:37;11.20;;;10.20;;
57828;SDS011;43657;52.698;6.314;2022-08-19T12:01:07;9.40;;;8.52;;
57828;SDS011;43657;52.698;6.314;2022-08-19T12:03:33;8.80;;;7.90;;
57828;SDS011;43657;52.698;6.314;2022-08-19T12:06:07;9.13;;;8.20;;
57828;SDS011;43657;52.698;6.314;2022-08-19T12:08:34;11.70;;;10.60;;
57828;SDS011;43657;52.698;6.314;2022-08-19T12:11:00;10.00;;;9.00;;
57828;SDS011;43657;52.698;6.314;2022-08-19T12:13:27;9.68;;;8.77;;
57828;SDS011;43657;52.698;6.314;2022-08-19T12:15:56;10.65;;;9.60;;
57828;SDS011;43657;52.698;6.314;2022-08-19T12:18:23;10.80;;;9.80;;
57828;SDS011;43657;52.698;6.314;2022-08-19T12:20:50;9.77;;;8.77;;
57828;SDS011;43657;52.698;6.314;2022-08-19T12:23:16;10.57;;;9.57;;
57828;SDS011;43657;52.698;6.314;2022-08-19T12:25:44;9.90;;;8.90;;
57828;SDS011;43657;52.698;6.314;2022-08-19T12:28:18;9.45;;;8.45;;
57828;SDS011;43657;52.698;6.314;2022-08-19T12:30:45;9.10;;;7.75;;
57828;SDS011;43657;52.698;6.314;2022-08-19T12:33:11;10.02;;;8.57;;
57828;SDS011;43657;52.698;6.314;2022-08-19T12:35:39;9.48;;;7.07;;
57828;SDS011;43657;52.698;6.314;2022-08-19T12:38:07;8.93;;;8.02;;
57828;SDS011;43657;52.698;6.314;2022-08-19T12:40:32;7.00;;;6.30;;
57828;SDS011;43657;52.698;6.314;2022-08-19T12:42:58;6.38;;;5.75;;
57828;SDS011;43657;52.698;6.314;2022-08-19T12:45:24;8.15;;;7.35;;
57828;SDS011;43657;52.698;6.314;2022-08-19T12:47:49;7.50;;;6.70;;
57828;SDS011;43657;52.698;6.314;2022-08-19T12:50:16;7.95;;;7.20;;
57828;SDS011;43657;52.698;6.314;2022-08-19T12:52:42;7.10;;;6.50;;
57828;SDS011;43657;52.698;6.314;2022-08-19T12:55:08;9.25;;;6.22;;
57828;SDS011;43657;52.698;6.314;2022-08-19T12:57:34;7.50;;;6.80;;
57828;SDS011;43657;52.698;6.314;2022-08-19T13:02:37;7.22;;;6.53;;
57828;SDS011;43657;52.698;6.314;2022-08-19T13:05:03;7.05;;;6.28;;
57828;SDS011;43657;52.698;6.314;2022-08-19T13:07:32;7.47;;;6.32;;
57828;SDS011;43657;52.698;6.314;2022-08-19T13:09:58;8.55;;;7.25;;
57828;SDS011;43657;52.698;6.314;2022-08-19T13:12:24;6.93;;;6.22;;
57828;SDS011;43657;52.698;6.314;2022-08-19T13:14:51;6.72;;;6.00;;
57828;SDS011;43657;52.698;6.314;2022-08-19T13:17:17;7.47;;;5.72;;
57828;SDS011;43657;52.698;6.314;2022-08-19T13:19:43;5.80;;;5.13;;
57828;SDS011;43657;52.698;6.314;2022-08-19T13:22:08;6.35;;;5.65;;
57828;SDS011;43657;52.698;6.314;2022-08-19T13:24:34;5.30;;;4.80;;
57828;SDS011;43657;52.698;6.314;2022-08-19T13:27:01;6.13;;;5.53;;
57828;SDS011;43657;52.698;6.314;2022-08-19T13:29:27;5.22;;;4.72;;
57828;SDS011;43657;52.698;6.314;2022-08-19T13:32:12;5.88;;;4.75;;
57828;SDS011;43657;52.698;6.314;2022-08-19T13:34:56;5.90;;;5.28;;
57828;SDS011;43657;52.698;6.314;2022-08-19T13:37:21;7.53;;;6.82;;
57828;SDS011;43657;52.698;6.314;2022-08-19T13:40:06;6.03;;;5.43;;
57828;SDS011;43657;52.698;6.314;2022-08-19T13:42:37;6.63;;;5.93;;
57828;SDS011;43657;52.698;6.314;2022-08-19T13:45:06;7.78;;;6.78;;
57828;SDS011;43657;52.698;6.314;2022-08-19T13:47:33;7.35;;;6.65;;
57828;SDS011;43657;52.698;6.314;2022-08-19T13:49:59;7.75;;;6.93;;
57828;SDS011;43657;52.698;6.314;2022-08-19T13:52:28;7.88;;;7.03;;
57828;SDS011;43657;52.698;6.314;2022-08-19T13:54:54;7.13;;;6.43;;
57828;SDS011;43657;52.698;6.314;2022-08-19T13:57:19;7.20;;;6.50;;
57828;SDS011;43657;52.698;6.314;2022-08-19T13:59:45;9.30;;;8.30;;
57828;SDS011;43657;52.698;6.314;2022-08-19T14:02:11;8.88;;;8.00;;
57828;SDS011;43657;52.698;6.314;2022-08-19T14:04:36;10.50;;;9.50;;
57828;SDS011;43657;52.698;6.314;2022-08-19T14:07:02;10.63;;;8.73;;
57828;SDS011;43657;52.698;6.314;2022-08-19T14:09:28;11.05;;;8.93;;
57828;SDS011;43657;52.698;6.314;2022-08-19T14:11:54;9.40;;;8.45;;
57828;SDS011;43657;52.698;6.314;2022-08-19T14:14:20;9.38;;;8.07;;
57828;SDS011;43657;52.698;6.314;2022-08-19T14:16:46;10.23;;;9.15;;
57828;SDS011;43657;52.698;6.314;2022-08-19T14:19:13;9.77;;;8.77;;
57828;SDS011;43657;52.698;6.314;2022-08-19T14:21:38;9.60;;;8.60;;
57828;SDS011;43657;52.698;6.314;2022-08-19T14:24:05;7.45;;;6.75;;
57828;SDS011;43657;52.698;6.314;2022-08-19T14:26:31;11.13;;;7.68;;
57828;SDS011;43657;52.698;6.314;2022-08-19T14:28:57;7.43;;;6.60;;
57828;SDS011;43657;52.698;6.314;2022-08-19T14:31:23;7.00;;;6.30;;
57828;SDS011;43657;52.698;6.314;2022-08-19T14:33:49;5.97;;;5.38;;
57828;SDS011;43657;52.698;6.314;2022-08-19T14:36:16;8.55;;;5.88;;
57828;SDS011;43657;52.698;6.314;2022-08-19T14:38:42;6.65;;;5.95;;
57828;SDS011;43657;52.698;6.314;2022-08-19T14:41:16;7.22;;;6.50;;
57828;SDS011;43657;52.698;6.314;2022-08-19T14:43:44;7.80;;;7.00;;
57828;SDS011;43657;52.698;6.314;2022-08-19T14:46:12;7.85;;;7.05;;
57828;SDS011;43657;52.698;6.314;2022-08-19T14:48:40;9.18;;;8.27;;
57828;SDS011;43657;52.698;6.314;2022-08-19T14:51:06;10.27;;;9.27;;
57828;SDS011;43657;52.698;6.314;2022-08-19T14:53:31;9.63;;;8.63;;
57828;SDS011;43657;52.698;6.314;2022-08-19T14:55:58;10.32;;;8.82;;
57828;SDS011;43657;52.698;6.314;2022-08-19T14:58:24;9.52;;;8.20;;
57828;SDS011;43657;52.698;6.314;2022-08-19T15:00:50;10.05;;;8.80;;
57828;SDS011;43657;52.698;6.314;2022-08-19T15:03:16;9.55;;;8.60;;
57828;SDS011;43657;52.698;6.314;2022-08-19T15:05:51;9.68;;;8.55;;
57828;SDS011;43657;52.698;6.314;2022-08-19T15:10:56;9.38;;;7.85;;
57828;SDS011;43657;52.698;6.314;2022-08-19T15:13:47;10.30;;;8.60;;
57828;SDS011;43657;52.698;6.314;2022-08-19T15:16:23;8.82;;;7.68;;
57828;SDS011;43657;52.698;6.314;2022-08-19T15:18:54;9.13;;;8.00;;
57828;SDS011;43657;52.698;6.314;2022-08-19T15:21:33;9.48;;;7.95;;
57828;SDS011;43657;52.698;6.314;2022-08-19T15:24:03;8.63;;;7.30;;
57828;SDS011;43657;52.698;6.314;2022-08-19T15:27:01;8.05;;;7.22;;
57828;SDS011;43657;52.698;6.314;2022-08-19T15:29:37;7.72;;;6.93;;
57828;SDS011;43657;52.698;6.314;2022-08-19T15:32:12;8.45;;;7.03;;
57828;SDS011;43657;52.698;6.314;2022-08-19T15:34:46;7.32;;;6.60;;